sensor_id;sensor_type;location;lat;lon;timestamp;temperature;humidity
36552;DHT22;22559;54.176;12.102;2023-12-28T00:00:27;5.80;99.90
36552;DHT22;22559;54.176;12.102;2023-12-28T00:02:53;5.80;99.90
36552;DHT22;22559;54.176;12.102;2023-12-28T00:05:19;5.80;99.90
36552;DHT22;22559;54.176;12.102;2023-12-28T00:07:44;5.80;99.90
36552;DHT22;22559;54.176;12.102;2023-12-28T00:10:10;5.90;99.90
36552;DHT22;22559;54.176;12.102;2023-12-28T00:12:36;5.90;99.90
36552;DHT22;22559;54.176;12.102;2023-12-28T00:15:02;5.90;99.90
36552;DHT22;22559;54.176;12.102;2023-12-28T00:17:27;5.90;99.90
36552;DHT22;22559;54.176;12.102;2023-12-28T00:19:53;6.00;99.90
36552;DHT22;22559;54.176;12.102;2023-12-28T00:22:18;6.00;99.90
36552;DHT22;22559;54.176;12.102;2023-12-28T00:24:44;6.00;99.90
36552;DHT22;22559;54.176;12.102;2023-12-28T00:27:10;6.10;99.90
36552;DHT22;22559;54.176;12.102;2023-12-28T00:29:35;6.10;99.90
36552;DHT22;22559;54.176;12.102;2023-12-28T00:32:05;6.10;99.90
36552;DHT22;22559;54.176;12.102;2023-12-28T00:34:31;6.20;99.90
36552;DHT22;22559;54.176;12.102;2023-12-28T00:36:56;6.20;99.90
36552;DHT22;22559;54.176;12.102;2023-12-28T00:39:22;6.20;99.90
36552;DHT22;22559;54.176;12.102;2023-12-28T00:41:48;6.20;99.90
36552;DHT22;22559;54.176;12.102;2023-12-28T00:44:13;6.10;99.90
36552;DHT22;22559;54.176;12.102;2023-12-28T00:46:39;6.10;99.90
36552;DHT22;22559;54.176;12.102;2023-12-28T00:49:05;6.00;99.90
36552;DHT22;22559;54.176;12.102;2023-12-28T00:51:30;6.00;99.90
36552;DHT22;22559;54.176;12.102;2023-12-28T00:53:56;5.90;99.90
36552;DHT22;22559;54.176;12.102;2023-12-28T00:56:22;5.90;99.90
36552;DHT22;22559;54.176;12.102;2023-12-28T00:58:47;5.90;99.90
36552;DHT22;22559;54.176;12.102;2023-12-28T01:01:13;5.90;99.90
36552;DHT22;22559;54.176;12.102;2023-12-28T01:03:39;5.90;99.90
36552;DHT22;22559;54.176;12.102;2023-12-28T01:06:07;6.00;99.90
36552;DHT22;22559;54.176;12.102;2023-12-28T01:08:33;6.00;99.90
36552;DHT22;22559;54.176;12.102;2023-12-28T01:11:02;6.00;99.90
36552;DHT22;22559;54.176;12.102;2023-12-28T01:13:28;6.00;99.90
36552;DHT22;22559;54.176;12.102;2023-12-28T01:15:53;6.10;99.90
36552;DHT22;22559;54.176;12.102;2023-12-28T01:18:19;6.10;99.90
36552;DHT22;22559;54.176;12.102;2023-12-28T01:20:46;6.10;99.90
36552;DHT22;22559;54.176;12.102;2023-12-28T01:23:11;6.10;99.90
36552;DHT22;22559;54.176;12.102;2023-12-28T01:25:37;6.20;99.90
36552;DHT22;22559;54.176;12.102;2023-12-28T01:28:03;6.30;99.90
36552;DHT22;22559;54.176;12.102;2023-12-28T01:30:29;6.30;99.90
36552;DHT22;22559;54.176;12.102;2023-12-28T01:32:55;6.30;99.90
36552;DHT22;22559;54.176;12.102;2023-12-28T01:35:21;6.30;99.90
36552;DHT22;22559;54.176;12.102;2023-12-28T01:37:46;6.30;99.90
36552;DHT22;22559;54.176;12.102;2023-12-28T01:40:12;6.40;99.90
36552;DHT22;22559;54.176;12.102;2023-12-28T01:42:38;6.40;99.90
36552;DHT22;22559;54.176;12.102;2023-12-28T01:45:05;6.40;99.90
36552;DHT22;22559;54.176;12.102;2023-12-28T01:47:30;6.40;99.90
36552;DHT22;22559;54.176;12.102;2023-12-28T01:49:57;6.40;99.90
36552;DHT22;22559;54.176;12.102;2023-12-28T01:52:24;6.40;99.90
36552;DHT22;22559;54.176;12.102;2023-12-28T01:54:49;6.40;99.90
36552;DHT22;22559;54.176;12.102;2023-12-28T01:57:16;6.40;99.90
36552;DHT22;22559;54.176;12.102;2023-12-28T01:59:42;6.50;99.90
36552;DHT22;22559;54.176;12.102;2023-12-28T02:02:08;6.50;99.90
36552;DHT22;22559;54.176;12.102;2023-12-28T02:04:34;6.50;99.90
36552;DHT22;22559;54.176;12.102;2023-12-28T02:07:01;6.50;99.90
36552;DHT22;22559;54.176;12.102;2023-12-28T02:09:26;6.60;99.90
36552;DHT22;22559;54.176;12.102;2023-12-28T02:11:53;6.70;99.90
36552;DHT22;22559;54.176;12.102;2023-12-28T02:14:20;6.80;99.90
36552;DHT22;22559;54.176;12.102;2023-12-28T02:19:31;6.90;99.90
36552;DHT22;22559;54.176;12.102;2023-12-28T02:21:59;6.90;99.90
36552;DHT22;22559;54.176;12.102;2023-12-28T02:24:25;6.90;99.90
36552;DHT22;22559;54.176;12.102;2023-12-28T02:26:50;7.00;99.90
36552;DHT22;22559;54.176;12.102;2023-12-28T02:29:16;6.90;99.90
36552;DHT22;22559;54.176;12.102;2023-12-28T02:31:49;7.00;99.90
36552;DHT22;22559;54.176;12.102;2023-12-28T02:34:22;7.00;99.90
36552;DHT22;22559;54.176;12.102;2023-12-28T02:36:50;7.10;99.90
36552;DHT22;22559;54.176;12.102;2023-12-28T02:39:17;7.10;99.90
36552;DHT22;22559;54.176;12.102;2023-12-28T02:41:44;7.20;99.90
36552;DHT22;22559;54.176;12.102;2023-12-28T02:44:10;7.30;99.90
36552;DHT22;22559;54.176;12.102;2023-12-28T02:46:35;7.30;99.90
36552;DHT22;22559;54.176;12.102;2023-12-28T02:49:01;7.40;99.90
36552;DHT22;22559;54.176;12.102;2023-12-28T02:51:27;7.50;99.90
36552;DHT22;22559;54.176;12.102;2023-12-28T02:53:52;7.50;99.90
36552;DHT22;22559;54.176;12.102;2023-12-28T02:56:18;7.50;99.90
36552;DHT22;22559;54.176;12.102;2023-12-28T02:58:44;7.60;99.90
36552;DHT22;22559;54.176;12.102;2023-12-28T03:01:09;7.60;99.90
36552;DHT22;22559;54.176;12.102;2023-12-28T03:03:35;7.60;99.90
36552;DHT22;22559;54.176;12.102;2023-12-28T03:06:00;7.60;99.90
36552;DHT22;22559;54.176;12.102;2023-12-28T03:08:26;7.60;99.90
36552;DHT22;22559;54.176;12.102;2023-12-28T03:10:51;7.70;99.90
36552;DHT22;22559;54.176;12.102;2023-12-28T03:13:18;7.70;99.90
36552;DHT22;22559;54.176;12.102;2023-12-28T03:15:43;7.70;99.90
36552;DHT22;22559;54.176;12.102;2023-12-28T03:18:09;7.70;99.90
36552;DHT22;22559;54.176;12.102;2023-12-28T03:20:35;7.80;99.90
36552;DHT22;22559;54.176;12.102;2023-12-28T03:23:00;7.80;99.90
36552;DHT22;22559;54.176;12.102;2023-12-28T03:25:26;7.90;99.90
36552;DHT22;22559;54.176;12.102;2023-12-28T03:27:51;7.90;99.90
36552;DHT22;22559;54.176;12.102;2023-12-28T03:30:17;8.00;99.90
36552;DHT22;22559;54.176;12.102;2023-12-28T03:32:43;8.00;99.90
36552;DHT22;22559;54.176;12.102;2023-12-28T03:35:08;8.00;99.90
36552;DHT22;22559;54.176;12.102;2023-12-28T03:37:34;8.10;99.90
36552;DHT22;22559;54.176;12.102;2023-12-28T03:40:00;8.10;99.90
36552;DHT22;22559;54.176;12.102;2023-12-28T03:42:26;8.10;99.90
36552;DHT22;22559;54.176;12.102;2023-12-28T03:44:52;8.10;99.90
36552;DHT22;22559;54.176;12.102;2023-12-28T03:47:17;8.20;99.90
36552;DHT22;22559;54.176;12.102;2023-12-28T03:49:43;8.20;99.90
36552;DHT22;22559;54.176;12.102;2023-12-28T03:52:08;8.20;99.90
36552;DHT22;22559;54.176;12.102;2023-12-28T03:54:34;8.20;99.90
36552;DHT22;22559;54.176;12.102;2023-12-28T03:57:00;8.30;99.90
36552;DHT22;22559;54.176;12.102;2023-12-28T03:59:25;8.30;99.90
36552;DHT22;22559;54.176;12.102;2023-12-28T04:01:51;8.20;99.90
36552;DHT22;22559;54.176;12.102;2023-12-28T04:04:18;8.20;99.90
36552;DHT22;22559;54.176;12.102;2023-12-28T04:06:43;8.20;99.90
36552;DHT22;22559;54.176;12.102;2023-12-28T04:09:11;8.20;99.90
36552;DHT22;22559;54.176;12.102;2023-12-28T04:11:37;8.20;99.90
36552;DHT22;22559;54.176;12.102;2023-12-28T04:14:03;8.20;99.90
36552;DHT22;22559;54.176;12.102;2023-12-28T04:16:29;8.20;99.90
36552;DHT22;22559;54.176;12.102;2023-12-28T04:18:54;8.20;99.90
36552;DHT22;22559;54.176;12.102;2023-12-28T04:21:20;8.20;99.90
36552;DHT22;22559;54.176;12.102;2023-12-28T04:23:47;8.20;99.90
36552;DHT22;22559;54.176;12.102;2023-12-28T04:26:12;8.10;99.90
36552;DHT22;22559;54.176;12.102;2023-12-28T04:28:39;8.10;99.90
36552;DHT22;22559;54.176;12.102;2023-12-28T04:31:05;8.10;99.90
36552;DHT22;22559;54.176;12.102;2023-12-28T04:33:32;8.10;99.90
36552;DHT22;22559;54.176;12.102;2023-12-28T04:36:01;8.10;99.90
36552;DHT22;22559;54.176;12.102;2023-12-28T04:38:28;8.20;99.90
36552;DHT22;22559;54.176;12.102;2023-12-28T04:40:54;8.20;99.90
36552;DHT22;22559;54.176;12.102;2023-12-28T04:43:19;8.10;99.90
36552;DHT22;22559;54.176;12.102;2023-12-28T04:45:45;8.10;99.90
36552;DHT22;22559;54.176;12.102;2023-12-28T04:48:11;8.20;99.90
36552;DHT22;22559;54.176;12.102;2023-12-28T04:50:37;8.20;99.90
36552;DHT22;22559;54.176;12.102;2023-12-28T04:53:03;8.20;99.90
36552;DHT22;22559;54.176;12.102;2023-12-28T04:55:28;8.20;99.90
36552;DHT22;22559;54.176;12.102;2023-12-28T04:57:54;8.30;99.90
36552;DHT22;22559;54.176;12.102;2023-12-28T05:00:20;8.30;99.90
36552;DHT22;22559;54.176;12.102;2023-12-28T05:02:45;8.30;99.90
36552;DHT22;22559;54.176;12.102;2023-12-28T05:05:14;8.30;99.90
36552;DHT22;22559;54.176;12.102;2023-12-28T05:07:40;8.40;99.90
36552;DHT22;22559;54.176;12.102;2023-12-28T05:10:06;8.40;99.90
36552;DHT22;22559;54.176;12.102;2023-12-28T05:12:32;8.30;99.90
36552;DHT22;22559;54.176;12.102;2023-12-28T05:14:57;8.40;99.90
36552;DHT22;22559;54.176;12.102;2023-12-28T05:17:23;8.30;99.90
36552;DHT22;22559;54.176;12.102;2023-12-28T05:19:48;8.40;99.90
36552;DHT22;22559;54.176;12.102;2023-12-28T05:22:14;8.30;99.90
36552;DHT22;22559;54.176;12.102;2023-12-28T05:24:40;8.30;99.90
36552;DHT22;22559;54.176;12.102;2023-12-28T05:27:05;8.30;99.90
36552;DHT22;22559;54.176;12.102;2023-12-28T05:29:31;8.30;99.90
36552;DHT22;22559;54.176;12.102;2023-12-28T05:31:56;8.30;99.90
36552;DHT22;22559;54.176;12.102;2023-12-28T05:34:22;8.30;99.90
36552;DHT22;22559;54.176;12.102;2023-12-28T05:36:48;8.30;99.90
36552;DHT22;22559;54.176;12.102;2023-12-28T05:39:13;8.30;99.90
36552;DHT22;22559;54.176;12.102;2023-12-28T05:41:39;8.30;99.90
36552;DHT22;22559;54.176;12.102;2023-12-28T05:44:06;8.30;99.90
36552;DHT22;22559;54.176;12.102;2023-12-28T05:46:31;8.30;99.90
36552;DHT22;22559;54.176;12.102;2023-12-28T05:48:57;8.30;99.90
36552;DHT22;22559;54.176;12.102;2023-12-28T05:51:23;8.30;99.90
36552;DHT22;22559;54.176;12.102;2023-12-28T05:53:48;8.40;99.90
36552;DHT22;22559;54.176;12.102;2023-12-28T05:56:14;8.30;99.90
36552;DHT22;22559;54.176;12.102;2023-12-28T05:58:40;8.40;99.90
36552;DHT22;22559;54.176;12.102;2023-12-28T06:01:06;8.30;99.90
36552;DHT22;22559;54.176;12.102;2023-12-28T06:03:32;8.30;99.90
36552;DHT22;22559;54.176;12.102;2023-12-28T06:05:57;8.30;99.90
36552;DHT22;22559;54.176;12.102;2023-12-28T06:08:23;8.30;99.90
36552;DHT22;22559;54.176;12.102;2023-12-28T06:10:49;8.30;99.90
36552;DHT22;22559;54.176;12.102;2023-12-28T06:13:15;8.30;99.90
36552;DHT22;22559;54.176;12.102;2023-12-28T06:15:40;8.40;99.90
36552;DHT22;22559;54.176;12.102;2023-12-28T06:18:06;8.40;99.90
36552;DHT22;22559;54.176;12.102;2023-12-28T06:20:32;8.30;99.90
36552;DHT22;22559;54.176;12.102;2023-12-28T06:22:57;8.40;99.90
36552;DHT22;22559;54.176;12.102;2023-12-28T06:25:23;8.40;99.90
36552;DHT22;22559;54.176;12.102;2023-12-28T06:27:49;8.50;99.90
36552;DHT22;22559;54.176;12.102;2023-12-28T06:30:14;8.60;99.90
36552;DHT22;22559;54.176;12.102;2023-12-28T06:32:40;8.50;99.90
36552;DHT22;22559;54.176;12.102;2023-12-28T06:35:06;8.60;99.90
36552;DHT22;22559;54.176;12.102;2023-12-28T06:37:32;8.60;99.90
36552;DHT22;22559;54.176;12.102;2023-12-28T06:39:57;8.60;99.90
36552;DHT22;22559;54.176;12.102;2023-12-28T06:42:23;8.70;99.90
36552;DHT22;22559;54.176;12.102;2023-12-28T06:44:49;8.70;99.90
36552;DHT22;22559;54.176;12.102;2023-12-28T06:47:14;8.60;99.90
36552;DHT22;22559;54.176;12.102;2023-12-28T06:49:40;8.60;99.90
36552;DHT22;22559;54.176;12.102;2023-12-28T06:52:05;8.60;99.90
36552;DHT22;22559;54.176;12.102;2023-12-28T06:54:31;8.50;99.90
36552;DHT22;22559;54.176;12.102;2023-12-28T06:56:57;8.50;99.90
36552;DHT22;22559;54.176;12.102;2023-12-28T06:59:22;8.50;99.90
36552;DHT22;22559;54.176;12.102;2023-12-28T07:01:48;8.50;99.90
36552;DHT22;22559;54.176;12.102;2023-12-28T07:04:14;8.50;99.90
36552;DHT22;22559;54.176;12.102;2023-12-28T07:06:40;8.50;99.90
36552;DHT22;22559;54.176;12.102;2023-12-28T07:09:06;8.50;99.90
36552;DHT22;22559;54.176;12.102;2023-12-28T07:11:31;8.50;99.90
36552;DHT22;22559;54.176;12.102;2023-12-28T07:13:57;8.50;99.90
36552;DHT22;22559;54.176;12.102;2023-12-28T07:16:23;8.50;99.90
36552;DHT22;22559;54.176;12.102;2023-12-28T07:18:49;8.50;99.90
36552;DHT22;22559;54.176;12.102;2023-12-28T07:21:14;8.50;99.90
36552;DHT22;22559;54.176;12.102;2023-12-28T07:23:40;8.50;99.90
36552;DHT22;22559;54.176;12.102;2023-12-28T07:26:06;8.40;99.90
36552;DHT22;22559;54.176;12.102;2023-12-28T07:28:31;8.50;99.90
36552;DHT22;22559;54.176;12.102;2023-12-28T07:30:57;8.50;99.90
36552;DHT22;22559;54.176;12.102;2023-12-28T07:33:23;8.50;99.90
36552;DHT22;22559;54.176;12.102;2023-12-28T07:35:48;8.50;99.90
36552;DHT22;22559;54.176;12.102;2023-12-28T07:38:14;8.50;99.90
36552;DHT22;22559;54.176;12.102;2023-12-28T07:40:40;8.40;99.90
36552;DHT22;22559;54.176;12.102;2023-12-28T07:43:06;8.40;99.90
36552;DHT22;22559;54.176;12.102;2023-12-28T07:45:32;8.40;99.90
36552;DHT22;22559;54.176;12.102;2023-12-28T07:48:01;8.40;99.90
36552;DHT22;22559;54.176;12.102;2023-12-28T07:50:27;8.40;99.90
36552;DHT22;22559;54.176;12.102;2023-12-28T07:52:52;8.40;99.90
36552;DHT22;22559;54.176;12.102;2023-12-28T07:55:18;8.40;99.90
36552;DHT22;22559;54.176;12.102;2023-12-28T07:57:44;8.40;99.90
36552;DHT22;22559;54.176;12.102;2023-12-28T08:00:11;8.50;99.90
36552;DHT22;22559;54.176;12.102;2023-12-28T08:02:36;8.50;99.90
36552;DHT22;22559;54.176;12.102;2023-12-28T08:05:03;8.60;99.90
36552;DHT22;22559;54.176;12.102;2023-12-28T08:07:28;8.50;99.90
36552;DHT22;22559;54.176;12.102;2023-12-28T08:09:54;8.60;99.90
36552;DHT22;22559;54.176;12.102;2023-12-28T08:12:20;8.60;99.90
36552;DHT22;22559;54.176;12.102;2023-12-28T08:14:46;8.60;99.90
36552;DHT22;22559;54.176;12.102;2023-12-28T08:17:12;8.60;99.90
36552;DHT22;22559;54.176;12.102;2023-12-28T08:19:38;8.70;99.90
36552;DHT22;22559;54.176;12.102;2023-12-28T08:22:04;8.70;99.90
36552;DHT22;22559;54.176;12.102;2023-12-28T08:24:30;8.80;99.90
36552;DHT22;22559;54.176;12.102;2023-12-28T08:26:55;8.80;99.90
36552;DHT22;22559;54.176;12.102;2023-12-28T08:29:25;8.80;99.90
36552;DHT22;22559;54.176;12.102;2023-12-28T08:31:50;8.90;99.90
36552;DHT22;22559;54.176;12.102;2023-12-28T08:34:16;8.90;99.90
36552;DHT22;22559;54.176;12.102;2023-12-28T08:36:42;9.00;99.90
36552;DHT22;22559;54.176;12.102;2023-12-28T08:39:07;9.10;99.90
36552;DHT22;22559;54.176;12.102;2023-12-28T08:41:33;9.20;99.90
36552;DHT22;22559;54.176;12.102;2023-12-28T08:43:59;9.30;99.90
36552;DHT22;22559;54.176;12.102;2023-12-28T08:46:25;9.30;99.90
36552;DHT22;22559;54.176;12.102;2023-12-28T08:48:50;9.40;99.90
36552;DHT22;22559;54.176;12.102;2023-12-28T08:51:16;9.40;99.90
36552;DHT22;22559;54.176;12.102;2023-12-28T08:53:42;9.30;99.90
36552;DHT22;22559;54.176;12.102;2023-12-28T08:56:16;9.30;99.90
36552;DHT22;22559;54.176;12.102;2023-12-28T08:58:43;9.30;99.90
36552;DHT22;22559;54.176;12.102;2023-12-28T09:01:18;9.30;99.90
36552;DHT22;22559;54.176;12.102;2023-12-28T09:03:44;9.30;99.90
36552;DHT22;22559;54.176;12.102;2023-12-28T09:06:10;9.60;99.90
36552;DHT22;22559;54.176;12.102;2023-12-28T09:08:35;9.90;99.90
36552;DHT22;22559;54.176;12.102;2023-12-28T09:11:01;10.20;99.90
36552;DHT22;22559;54.176;12.102;2023-12-28T09:13:27;10.50;99.90
36552;DHT22;22559;54.176;12.102;2023-12-28T09:15:52;10.60;99.90
36552;DHT22;22559;54.176;12.102;2023-12-28T09:18:18;10.60;99.90
36552;DHT22;22559;54.176;12.102;2023-12-28T09:20:44;10.30;99.90
36552;DHT22;22559;54.176;12.102;2023-12-28T09:23:09;10.20;99.90
36552;DHT22;22559;54.176;12.102;2023-12-28T09:25:36;10.10;99.90
36552;DHT22;22559;54.176;12.102;2023-12-28T09:28:04;10.00;99.90
36552;DHT22;22559;54.176;12.102;2023-12-28T09:30:30;10.00;99.90
36552;DHT22;22559;54.176;12.102;2023-12-28T09:32:55;10.00;99.90
36552;DHT22;22559;54.176;12.102;2023-12-28T09:35:21;10.10;99.90
36552;DHT22;22559;54.176;12.102;2023-12-28T09:37:47;10.20;99.90
36552;DHT22;22559;54.176;12.102;2023-12-28T09:40:13;10.30;99.90
36552;DHT22;22559;54.176;12.102;2023-12-28T09:42:47;10.40;99.90
36552;DHT22;22559;54.176;12.102;2023-12-28T09:45:15;10.40;99.90
36552;DHT22;22559;54.176;12.102;2023-12-28T09:47:41;10.40;99.90
36552;DHT22;22559;54.176;12.102;2023-12-28T09:50:10;10.30;99.90
36552;DHT22;22559;54.176;12.102;2023-12-28T09:52:36;10.30;99.90
36552;DHT22;22559;54.176;12.102;2023-12-28T09:55:01;10.40;99.90
36552;DHT22;22559;54.176;12.102;2023-12-28T09:57:28;10.40;99.90
36552;DHT22;22559;54.176;12.102;2023-12-28T09:59:54;10.40;99.90
36552;DHT22;22559;54.176;12.102;2023-12-28T10:02:20;10.40;99.90
36552;DHT22;22559;54.176;12.102;2023-12-28T10:04:46;10.40;99.90
36552;DHT22;22559;54.176;12.102;2023-12-28T10:07:11;10.40;99.90
36552;DHT22;22559;54.176;12.102;2023-12-28T10:09:37;10.40;99.90
36552;DHT22;22559;54.176;12.102;2023-12-28T10:12:03;10.50;99.90
36552;DHT22;22559;54.176;12.102;2023-12-28T10:14:29;10.50;99.90
36552;DHT22;22559;54.176;12.102;2023-12-28T10:16:55;10.50;99.90
36552;DHT22;22559;54.176;12.102;2023-12-28T10:19:24;10.50;99.90
36552;DHT22;22559;54.176;12.102;2023-12-28T10:21:49;10.50;99.90
36552;DHT22;22559;54.176;12.102;2023-12-28T10:24:15;10.50;99.90
36552;DHT22;22559;54.176;12.102;2023-12-28T10:26:41;10.50;99.90
36552;DHT22;22559;54.176;12.102;2023-12-28T10:29:07;10.60;99.90
36552;DHT22;22559;54.176;12.102;2023-12-28T10:31:34;10.60;99.90
36552;DHT22;22559;54.176;12.102;2023-12-28T10:34:00;10.60;99.90
36552;DHT22;22559;54.176;12.102;2023-12-28T10:36:28;10.60;99.90
36552;DHT22;22559;54.176;12.102;2023-12-28T10:38:54;10.70;99.90
36552;DHT22;22559;54.176;12.102;2023-12-28T10:41:20;10.70;99.90
36552;DHT22;22559;54.176;12.102;2023-12-28T10:46:32;10.90;99.90
36552;DHT22;22559;54.176;12.102;2023-12-28T10:49:00;11.00;99.90
36552;DHT22;22559;54.176;12.102;2023-12-28T10:51:26;11.00;99.90
36552;DHT22;22559;54.176;12.102;2023-12-28T10:54:20;11.00;99.90
36552;DHT22;22559;54.176;12.102;2023-12-28T10:57:22;11.10;99.90
36552;DHT22;22559;54.176;12.102;2023-12-28T11:00:08;11.10;99.90
36552;DHT22;22559;54.176;12.102;2023-12-28T11:02:44;11.20;99.90
36552;DHT22;22559;54.176;12.102;2023-12-28T11:05:12;11.30;99.90
36552;DHT22;22559;54.176;12.102;2023-12-28T11:07:38;11.40;99.90
36552;DHT22;22559;54.176;12.102;2023-12-28T11:10:06;11.60;99.90
36552;DHT22;22559;54.176;12.102;2023-12-28T11:12:32;11.70;99.90
36552;DHT22;22559;54.176;12.102;2023-12-28T11:14:59;12.00;99.90
36552;DHT22;22559;54.176;12.102;2023-12-28T11:17:25;12.00;99.90
36552;DHT22;22559;54.176;12.102;2023-12-28T11:19:52;12.00;99.90
36552;DHT22;22559;54.176;12.102;2023-12-28T11:22:21;11.90;99.90
36552;DHT22;22559;54.176;12.102;2023-12-28T11:24:47;11.80;99.90
36552;DHT22;22559;54.176;12.102;2023-12-28T11:27:13;11.70;99.90
36552;DHT22;22559;54.176;12.102;2023-12-28T11:29:41;11.70;99.90
36552;DHT22;22559;54.176;12.102;2023-12-28T11:32:08;11.80;99.90
36552;DHT22;22559;54.176;12.102;2023-12-28T11:34:35;11.70;99.90
36552;DHT22;22559;54.176;12.102;2023-12-28T11:37:06;11.70;99.90
36552;DHT22;22559;54.176;12.102;2023-12-28T11:39:33;11.70;99.90
36552;DHT22;22559;54.176;12.102;2023-12-28T11:42:00;11.80;99.90
36552;DHT22;22559;54.176;12.102;2023-12-28T11:44:29;11.70;99.90
36552;DHT22;22559;54.176;12.102;2023-12-28T11:46:54;11.70;99.90
36552;DHT22;22559;54.176;12.102;2023-12-28T11:49:25;11.70;99.90
36552;DHT22;22559;54.176;12.102;2023-12-28T11:51:56;11.70;99.90
36552;DHT22;22559;54.176;12.102;2023-12-28T11:54:24;11.70;99.90
36552;DHT22;22559;54.176;12.102;2023-12-28T11:56:50;11.70;99.90
36552;DHT22;22559;54.176;12.102;2023-12-28T11:59:15;11.70;99.90
36552;DHT22;22559;54.176;12.102;2023-12-28T12:01:41;11.80;99.90
36552;DHT22;22559;54.176;12.102;2023-12-28T12:04:06;11.70;99.90
36552;DHT22;22559;54.176;12.102;2023-12-28T12:06:33;11.80;99.90
36552;DHT22;22559;54.176;12.102;2023-12-28T12:08:58;12.00;99.90
36552;DHT22;22559;54.176;12.102;2023-12-28T12:11:24;12.30;99.90
36552;DHT22;22559;54.176;12.102;2023-12-28T12:13:51;12.40;99.90
36552;DHT22;22559;54.176;12.102;2023-12-28T12:16:17;12.50;99.90
36552;DHT22;22559;54.176;12.102;2023-12-28T12:18:43;12.70;99.90
36552;DHT22;22559;54.176;12.102;2023-12-28T12:21:09;12.70;99.90
36552;DHT22;22559;54.176;12.102;2023-12-28T12:23:35;12.60;99.90
36552;DHT22;22559;54.176;12.102;2023-12-28T12:26:05;12.50;99.90
36552;DHT22;22559;54.176;12.102;2023-12-28T12:28:31;12.30;99.90
36552;DHT22;22559;54.176;12.102;2023-12-28T12:30:57;12.30;99.90
36552;DHT22;22559;54.176;12.102;2023-12-28T12:33:27;12.30;99.90
36552;DHT22;22559;54.176;12.102;2023-12-28T12:35:53;12.30;99.90
36552;DHT22;22559;54.176;12.102;2023-12-28T12:38:19;12.20;99.90
36552;DHT22;22559;54.176;12.102;2023-12-28T12:40:44;12.10;99.90
36552;DHT22;22559;54.176;12.102;2023-12-28T12:43:10;12.10;99.90
36552;DHT22;22559;54.176;12.102;2023-12-28T12:45:36;12.20;99.90
36552;DHT22;22559;54.176;12.102;2023-12-28T12:48:05;12.20;99.90
36552;DHT22;22559;54.176;12.102;2023-12-28T12:50:32;12.20;99.90
36552;DHT22;22559;54.176;12.102;2023-12-28T12:53:01;12.20;99.90
36552;DHT22;22559;54.176;12.102;2023-12-28T12:55:29;12.30;99.90
36552;DHT22;22559;54.176;12.102;2023-12-28T12:57:55;12.40;99.90
36552;DHT22;22559;54.176;12.102;2023-12-28T13:00:22;12.30;99.90
36552;DHT22;22559;54.176;12.102;2023-12-28T13:02:49;12.20;99.90
36552;DHT22;22559;54.176;12.102;2023-12-28T13:05:17;12.10;99.90
36552;DHT22;22559;54.176;12.102;2023-12-28T13:07:43;12.00;99.90
36552;DHT22;22559;54.176;12.102;2023-12-28T13:10:09;12.00;99.90
36552;DHT22;22559;54.176;12.102;2023-12-28T13:12:36;11.90;99.90
36552;DHT22;22559;54.176;12.102;2023-12-28T13:15:01;11.90;99.90
36552;DHT22;22559;54.176;12.102;2023-12-28T13:17:27;11.80;99.90
36552;DHT22;22559;54.176;12.102;2023-12-28T13:19:53;11.60;99.90
36552;DHT22;22559;54.176;12.102;2023-12-28T13:22:18;11.50;99.90
36552;DHT22;22559;54.176;12.102;2023-12-28T13:24:44;11.30;99.90
36552;DHT22;22559;54.176;12.102;2023-12-28T13:27:09;11.20;99.90
36552;DHT22;22559;54.176;12.102;2023-12-28T13:29:36;11.30;99.90
36552;DHT22;22559;54.176;12.102;2023-12-28T13:32:01;11.30;99.90
36552;DHT22;22559;54.176;12.102;2023-12-28T13:34:27;11.40;99.90
36552;DHT22;22559;54.176;12.102;2023-12-28T13:36:54;11.50;99.90
36552;DHT22;22559;54.176;12.102;2023-12-28T13:39:19;11.50;99.90
36552;DHT22;22559;54.176;12.102;2023-12-28T13:41:45;11.50;99.90
36552;DHT22;22559;54.176;12.102;2023-12-28T13:44:11;11.50;99.90
36552;DHT22;22559;54.176;12.102;2023-12-28T13:46:38;11.40;99.90
36552;DHT22;22559;54.176;12.102;2023-12-28T13:49:04;11.40;99.90
36552;DHT22;22559;54.176;12.102;2023-12-28T13:51:30;11.40;99.90
36552;DHT22;22559;54.176;12.102;2023-12-28T13:53:56;11.40;99.90
36552;DHT22;22559;54.176;12.102;2023-12-28T13:56:22;11.40;99.90
36552;DHT22;22559;54.176;12.102;2023-12-28T13:58:48;11.40;99.90
36552;DHT22;22559;54.176;12.102;2023-12-28T14:01:13;11.40;99.90
36552;DHT22;22559;54.176;12.102;2023-12-28T14:03:39;11.50;99.90
36552;DHT22;22559;54.176;12.102;2023-12-28T14:06:05;11.50;99.90
36552;DHT22;22559;54.176;12.102;2023-12-28T14:08:31;11.50;99.90
36552;DHT22;22559;54.176;12.102;2023-12-28T14:10:56;11.50;99.90
36552;DHT22;22559;54.176;12.102;2023-12-28T14:13:22;11.40;99.90
36552;DHT22;22559;54.176;12.102;2023-12-28T14:15:48;11.30;99.90
36552;DHT22;22559;54.176;12.102;2023-12-28T14:18:13;11.30;99.90
36552;DHT22;22559;54.176;12.102;2023-12-28T14:20:39;11.40;99.90
36552;DHT22;22559;54.176;12.102;2023-12-28T14:23:05;11.30;99.90
36552;DHT22;22559;54.176;12.102;2023-12-28T14:25:31;11.30;99.90
36552;DHT22;22559;54.176;12.102;2023-12-28T14:27:57;11.30;99.90
36552;DHT22;22559;54.176;12.102;2023-12-28T14:30:23;11.30;99.90
36552;DHT22;22559;54.176;12.102;2023-12-28T14:32:49;11.30;99.90
36552;DHT22;22559;54.176;12.102;2023-12-28T14:35:15;11.30;99.90
36552;DHT22;22559;54.176;12.102;2023-12-28T14:37:46;11.30;99.90
36552;DHT22;22559;54.176;12.102;2023-12-28T14:40:12;11.30;99.90
36552;DHT22;22559;54.176;12.102;2023-12-28T14:42:38;11.30;99.90
36552;DHT22;22559;54.176;12.102;2023-12-28T14:45:04;11.30;99.90
36552;DHT22;22559;54.176;12.102;2023-12-28T14:47:30;11.30;99.90
36552;DHT22;22559;54.176;12.102;2023-12-28T14:49:56;11.20;99.90
36552;DHT22;22559;54.176;12.102;2023-12-28T14:52:23;11.10;99.90
36552;DHT22;22559;54.176;12.102;2023-12-28T14:54:51;11.10;99.90
36552;DHT22;22559;54.176;12.102;2023-12-28T14:57:20;11.10;99.90
36552;DHT22;22559;54.176;12.102;2023-12-28T14:59:45;11.20;99.90
36552;DHT22;22559;54.176;12.102;2023-12-28T15:02:11;11.10;99.90
36552;DHT22;22559;54.176;12.102;2023-12-28T15:04:37;11.20;99.90
36552;DHT22;22559;54.176;12.102;2023-12-28T15:07:04;11.10;99.90
36552;DHT22;22559;54.176;12.102;2023-12-28T15:09:29;11.20;99.90
36552;DHT22;22559;54.176;12.102;2023-12-28T15:11:56;11.20;99.90
36552;DHT22;22559;54.176;12.102;2023-12-28T15:14:22;11.20;99.90
36552;DHT22;22559;54.176;12.102;2023-12-28T15:16:48;10.90;99.90
36552;DHT22;22559;54.176;12.102;2023-12-28T15:19:14;10.60;99.90
36552;DHT22;22559;54.176;12.102;2023-12-28T15:21:40;10.40;99.90
36552;DHT22;22559;54.176;12.102;2023-12-28T15:24:06;10.20;99.90